Time;durP1;ratioP1;P1;durP2;ratioP2;P2;SDS_P1;SDS_P2;PMS_P1;PMS_P2;Temp;Humidity;BMP_temperature;BMP_pressure;BME280_temperature;BME280_humidity;BME280_pressure;Samples;Min_cycle;Max_cycle;Signal;HPM_P1;HPM_P2
2023/04/11 00:08:46;;;;;;;7.63;1.80;;;11.20;99.90;;;;;;20695652;28;20402;-78
2023/04/11 00:18:47;;;;;;;3.88;1.80;;;11.40;99.90;;;;;;20714956;28;20080;-78
2023/04/11 00:28:48;;;;;;;2.83;1.70;;;11.10;99.90;;;;;;20684246;28;20528;-78
2023/04/11 00:38:49;;;;;;;3.77;2.53;;;11.00;99.90;;;;;;20716509;28;20053;-80
2023/04/11 00:48:50;;;;;;;4.60;2.77;;;11.20;99.90;;;;;;20722270;28;20069;-79
2023/04/11 00:58:51;;;;;;;10.48;2.40;;;11.50;99.90;;;;;;20719607;28;20034;-78
2023/04/11 01:08:52;;;;;;;5.07;2.17;;;11.40;99.90;;;;;;20702924;28;20042;-80
2023/04/11 01:18:52;;;;;;;4.20;2.43;;;11.50;99.90;;;;;;20722952;28;20041;-78
2023/04/11 01:28:53;;;;;;;3.83;2.53;;;11.60;99.90;;;;;;20726292;28;20030;-76
2023/04/11 01:38:55;;;;;;;4.43;2.28;;;11.60;99.90;;;;;;20703594;28;20041;-79
2023/04/11 01:48:58;;;;;;;4.25;1.75;;;11.60;99.90;;;;;;20703132;28;20500;-80
2023/04/11 01:59:00;;;;;;;4.43;1.65;;;11.60;99.90;;;;;;20704040;28;20035;-79
2023/04/11 02:09:01;;;;;;;1.63;1.20;;;12.10;99.90;;;;;;20705673;28;20030;-79
2023/04/11 02:19:02;;;;;;;2.27;1.30;;;12.60;99.90;;;;;;20703428;28;20300;-79
2023/04/11 02:29:03;;;;;;;5.80;1.30;;;12.40;99.90;;;;;;20698624;28;20093;-79
2023/04/11 02:39:04;;;;;;;6.77;1.60;;;12.20;99.90;;;;;;20678344;28;20037;-78
2023/04/11 02:49:04;;;;;;;3.37;1.43;;;11.70;99.90;;;;;;20667090;28;20036;-78
2023/04/11 02:59:06;;;;;;;5.25;1.67;;;11.30;99.90;;;;;;20669322;28;20173;-78
2023/04/11 03:09:07;;;;;;;1.90;1.33;;;11.00;99.90;;;;;;20661478;28;20038;-78
2023/04/11 03:19:08;;;;;;;1.93;0.93;;;10.80;99.90;;;;;;20690720;28;20077;-78
2023/04/11 03:29:09;;;;;;;1.33;1.00;;;10.50;99.90;;;;;;20675687;28;20030;-78
2023/04/11 03:39:20;;;;;;;1.92;1.20;;;10.00;99.90;;;;;;20682651;28;20041;-78
2023/04/11 03:49:22;;;;;;;2.00;1.17;;;9.80;99.90;;;;;;20678061;28;20030;-79
2023/04/11 03:59:28;;;;;;;5.72;1.33;;;9.70;99.90;;;;;;20698073;28;20122;-81
2023/04/11 04:09:37;;;;;;;6.82;1.70;;;9.50;99.90;;;;;;20739775;23;20044;-80
2023/04/11 04:19:38;;;;;;;3.08;1.10;;;9.50;99.90;;;;;;20795599;28;20045;-82
2023/04/11 04:29:45;;;;;;;;;;;9.40;99.90;;;;;;20787549;28;20040;-81
2023/04/11 04:39:56;;;;;;;4.68;1.42;;;9.40;99.90;;;;;;20780045;28;19932;-79
2023/04/11 04:50:02;;;;;;;5.30;1.80;;;9.30;99.90;;;;;;20779131;28;20444;-81
2023/04/11 05:00:10;;;;;;;3.50;1.63;;;9.30;99.90;;;;;;20761705;28;20034;-83
2023/04/11 05:10:14;;;;;;;6.25;1.83;;;9.40;99.90;;;;;;20777737;28;20042;-82
2023/04/11 05:20:16;;;;;;;6.32;1.75;;;9.40;99.90;;;;;;20766729;28;20040;-80
2023/04/11 05:30:20;;;;;;;4.63;1.10;;;9.40;99.90;;;;;;20754568;28;20044;-80
2023/04/11 05:40:23;;;;;;;5.60;1.52;;;9.40;99.90;;;;;;20751236;28;20524;-81
2023/04/11 05:50:24;;;;;;;6.40;1.20;;;9.40;99.90;;;;;;20759491;28;20030;-80
2023/04/11 06:00:29;;;;;;;2.63;1.30;;;9.40;99.90;;;;;;20753996;28;20061;-81
2023/04/11 06:10:30;;;;;;;3.50;1.27;;;9.40;99.90;;;;;;20764322;28;20038;-81
2023/04/11 06:20:31;;;;;;;2.13;1.17;;;9.40;99.90;;;;;;20742527;28;20068;-79
2023/04/11 06:30:32;;;;;;;3.60;1.27;;;9.40;99.90;;;;;;20759569;28;20026;-80
2023/04/11 06:40:33;;;;;;;5.87;1.17;;;9.50;99.90;;;;;;20764012;28;20085;-79
2023/04/11 06:50:38;;;;;;;3.65;0.80;;;9.50;99.90;;;;;;20771235;28;20044;-79
2023/04/11 07:00:39;;;;;;;7.10;2.20;;;9.40;99.90;;;;;;20773401;28;20045;-80
2023/04/11 07:10:40;;;;;;;4.20;1.20;;;9.20;99.90;;;;;;20773598;28;20045;-81
2023/04/11 07:20:40;;;;;;;2.53;1.23;;;9.10;99.90;;;;;;20773426;28;20077;-82
2023/04/11 07:30:41;;;;;;;5.27;1.47;;;8.90;99.90;;;;;;20768206;28;20480;-81
2023/04/11 07:40:42;;;;;;;7.13;1.27;;;8.80;99.90;;;;;;20765979;28;20285;-79
2023/04/11 07:50:43;;;;;;;5.57;1.30;;;8.70;99.90;;;;;;20757854;28;20025;-78
2023/04/11 08:00:44;;;;;;;7.32;1.70;;;8.40;99.90;;;;;;20764681;28;20132;-78
2023/04/11 08:10:45;;;;;;;7.00;1.35;;;8.50;99.90;;;;;;20754930;28;20030;-78
2023/04/11 08:20:49;;;;;;;3.67;1.50;;;8.60;99.90;;;;;;20761054;28;20083;-79
2023/04/11 08:30:54;;;;;;;5.15;1.17;;;8.60;99.90;;;;;;20757610;28;20038;-78
2023/04/11 08:40:55;;;;;;;3.50;1.23;;;8.60;99.90;;;;;;20756970;28;20034;-78
2023/04/11 08:50:55;;;;;;;2.25;0.90;;;8.80;99.90;;;;;;20760849;28;20034;-79
2023/04/11 09:01:16;;;;;;;4.30;1.17;;;9.30;99.90;;;;;;20753906;28;20032;-79
2023/04/11 09:11:17;;;;;;;5.13;1.20;;;9.30;99.90;;;;;;20757739;28;20026;-79
2023/04/11 09:21:18;;;;;;;;;;;9.80;99.90;;;;;;20763247;28;20038;-79
2023/04/11 09:31:42;;;;;;;5.40;1.00;;;9.70;99.90;;;;;;20762518;28;20459;-79
2023/04/11 09:41:43;;;;;;;3.42;0.80;;;9.90;99.90;;;;;;20761911;28;20029;-80
2023/04/11 09:51:43;;;;;;;7.40;1.40;;;10.60;99.90;;;;;;20761652;28;20041;-78
2023/04/11 10:01:45;;;;;;;3.87;0.80;;;10.40;99.90;;;;;;20762932;28;20026;-79
2023/04/11 10:11:46;;;;;;;5.63;1.00;;;9.90;99.90;;;;;;20760992;28;20026;-79
2023/04/11 10:21:47;;;;;;;6.73;1.37;;;10.00;99.90;;;;;;20764201;28;20033;-80
2023/04/11 10:32:11;;;;;;;4.03;0.87;;;10.10;99.90;;;;;;20761758;28;20080;-81
2023/04/11 10:42:32;;;;;;;3.15;1.10;;;10.50;99.90;;;;;;20759312;28;20061;-80
2023/04/11 10:52:37;;;;;;;3.63;1.05;;;10.90;99.90;;;;;;20764276;28;20048;-80
2023/04/11 11:02:39;;;;;;;3.33;0.77;;;10.80;99.90;;;;;;20765304;28;20065;-79
2023/04/11 11:12:53;;;;;;;4.82;0.80;;;10.80;99.90;;;;;;20761683;28;20597;-80
2023/04/11 11:23:02;;;;;;;4.82;1.15;;;10.40;99.90;;;;;;20752555;28;20054;-80
2023/04/11 11:33:17;;;;;;;3.42;1.00;;;10.40;99.90;;;;;;20762361;28;20026;-80
2023/04/11 11:43:18;;;;;;;7.65;1.23;;;10.50;99.90;;;;;;20766570;28;20038;-80
2023/04/11 11:53:20;;;;;;;3.55;0.90;;;10.70;99.90;;;;;;20772608;28;20038;-81
2023/04/11 12:03:23;;;;;;;8.57;1.00;;;10.60;99.90;;;;;;20771663;28;20121;-80
2023/04/11 12:13:26;;;;;;;8.30;1.08;;;10.80;99.90;;;;;;20771818;28;20484;-81
2023/04/11 12:23:27;;;;;;;6.57;0.95;;;11.00;99.90;;;;;;20752823;28;20101;-80
2023/04/11 12:33:28;;;;;;;10.07;0.97;;;11.20;99.90;;;;;;20770841;28;20026;-80
2023/04/11 12:43:29;;;;;;;5.40;1.23;;;11.40;99.90;;;;;;20766549;28;20061;-79
2023/04/11 12:53:29;;;;;;;6.00;1.10;;;11.80;99.90;;;;;;20766980;28;20037;-80
2023/04/11 13:03:30;;;;;;;4.53;1.13;;;12.40;99.90;;;;;;20765970;28;20061;-79
2023/04/11 13:13:31;;;;;;;5.77;1.50;;;12.20;99.90;;;;;;20765057;28;20029;-80
2023/04/11 13:23:32;;;;;;;3.40;1.00;;;12.10;99.90;;;;;;20763965;28;20109;-79
2023/04/11 13:33:32;;;;;;;7.93;1.83;;;12.40;99.90;;;;;;20763817;28;20025;-79
2023/04/11 13:43:33;;;;;;;7.47;1.37;;;12.90;99.90;;;;;;20753114;28;20057;-80
2023/04/11 13:53:35;;;;;;;4.40;1.00;;;12.70;99.90;;;;;;20791506;28;20049;-79
2023/04/11 14:03:36;;;;;;;1.73;0.87;;;12.90;99.90;;;;;;20760512;28;20030;-79
2023/04/11 14:13:37;;;;;;;9.63;1.73;;;13.30;99.90;;;;;;20760780;28;20096;-80
2023/04/11 14:23:38;;;;;;;6.80;0.83;;;12.70;99.90;;;;;;20748045;28;20026;-79
2023/04/11 14:33:38;;;;;;;2.03;0.97;;;13.40;99.90;;;;;;20754149;28;20037;-80
2023/04/11 14:43:40;;;;;;;3.03;0.87;;;13.60;99.90;;;;;;20762953;28;20038;-79
2023/04/11 14:53:41;;;;;;;5.27;1.37;;;13.20;99.90;;;;;;20761319;28;20049;-80
2023/04/11 15:03:42;;;;;;;3.70;1.15;;;13.30;99.90;;;;;;20761081;28;20088;-79
2023/04/11 15:13:47;;;;;;;3.43;1.00;;;13.50;99.90;;;;;;20766016;28;20374;-79
2023/04/11 15:23:47;;;;;;;6.35;1.20;;;13.10;99.90;;;;;;20765319;28;20272;-78
2023/04/11 15:33:48;;;;;;;4.63;1.20;;;12.70;99.90;;;;;;20756712;28;20033;-79
2023/04/11 15:43:49;;;;;;;3.17;1.07;;;13.20;99.90;;;;;;20763423;28;20109;-79
2023/04/11 15:53:50;;;;;;;3.83;0.90;;;13.50;99.90;;;;;;20765600;28;20044;-79
2023/04/11 16:03:51;;;;;;;7.07;1.30;;;13.50;99.90;;;;;;20790486;28;20408;-80
2023/04/11 16:13:51;;;;;;;3.43;0.77;;;13.20;99.90;;;;;;20782144;28;20121;-79
2023/04/11 16:23:53;;;;;;;3.83;1.20;;;13.10;99.90;;;;;;20788803;28;20025;-79
2023/04/11 16:33:54;;;;;;;;;;;12.70;99.90;;;;;;20763076;28;20029;-79
2023/04/11 16:43:55;;;;;;;5.50;1.23;;;12.60;99.90;;;;;;20762375;28;19916;-80
2023/04/11 16:53:56;;;;;;;4.63;1.27;;;12.50;99.90;;;;;;20775787;28;20034;-79
2023/04/11 17:03:57;;;;;;;5.93;0.85;;;12.40;99.90;;;;;;20762842;28;20080;-79
2023/04/11 17:13:58;;;;;;;3.53;0.93;;;12.20;99.90;;;;;;20756190;28;20065;-78
2023/04/11 17:23:59;;;;;;;2.77;1.00;;;12.20;99.90;;;;;;20754592;28;20029;-78
2023/04/11 17:34:00;;;;;;;3.13;1.00;;;12.20;99.90;;;;;;20761237;28;20291;-79
2023/04/11 17:44:01;;;;;;;7.43;1.37;;;11.90;99.90;;;;;;20755422;28;20500;-79
2023/04/11 17:54:02;;;;;;;7.43;1.40;;;11.80;99.90;;;;;;20752795;28;20060;-79
2023/04/11 18:04:06;;;;;;;3.90;1.23;;;11.70;99.90;;;;;;20756003;28;20048;-80
2023/04/11 18:14:07;;;;;;;6.10;0.88;;;10.90;99.90;;;;;;20751587;28;20030;-79
2023/04/11 18:24:07;;;;;;;6.73;1.27;;;10.30;99.90;;;;;;20751941;28;20108;-79
2023/04/11 18:34:08;;;;;;;2.90;1.20;;;10.30;99.90;;;;;;20749479;28;20397;-78
2023/04/11 18:44:09;;;;;;;5.43;1.53;;;10.10;99.90;;;;;;20761189;28;20048;-79
2023/04/11 18:54:10;;;;;;;4.77;1.33;;;9.80;99.90;;;;;;20764888;28;20124;-79
2023/04/11 19:04:11;;;;;;;9.13;1.73;;;9.70;99.90;;;;;;20768725;28;20121;-79
2023/04/11 19:14:11;;;;;;;7.20;1.47;;;9.50;99.90;;;;;;20768691;28;20037;-79
2023/04/11 19:24:12;;;;;;;15.60;5.10;;;9.40;99.90;;;;;;20758485;28;20077;-79
2023/04/11 19:34:14;;;;;;;8.97;3.50;;;9.60;99.90;;;;;;20759762;28;20472;-80
2023/04/11 19:44:15;;;;;;;5.97;1.83;;;9.40;99.90;;;;;;20758049;28;20046;-80
2023/04/11 19:54:16;;;;;;;8.85;1.88;;;9.00;99.90;;;;;;20774950;28;20037;-80
2023/04/11 20:04:17;;;;;;;10.48;1.73;;;9.00;99.90;;;;;;20771455;28;20034;-80
2023/04/11 20:14:17;;;;;;;6.10;1.77;;;9.00;99.90;;;;;;20760432;28;20121;-80
2023/04/11 20:24:18;;;;;;;4.03;2.33;;;9.00;99.90;;;;;;20770397;28;20029;-80
2023/04/11 20:34:20;;;;;;;25.63;11.30;;;9.00;99.90;;;;;;20753708;28;20056;-80
2023/04/11 20:44:25;;;;;;;8.90;1.63;;;9.20;99.90;;;;;;20768029;28;20048;-80
2023/04/11 20:54:27;;;;;;;6.50;2.17;;;8.90;99.90;;;;;;20759533;28;20033;-79
2023/04/11 21:04:28;;;;;;;5.78;1.90;;;8.90;99.90;;;;;;20766087;28;20129;-80
2023/04/11 21:14:31;;;;;;;4.10;2.07;;;8.80;99.90;;;;;;20782776;28;20029;-80
2023/04/11 21:24:33;;;;;;;4.63;2.10;;;8.60;99.90;;;;;;20848052;28;20068;-80
2023/04/11 21:34:34;;;;;;;7.95;2.13;;;8.50;99.90;;;;;;20773850;28;20088;-80
2023/04/11 21:44:36;;;;;;;6.17;1.77;;;8.40;99.90;;;;;;20755439;28;20121;-79
2023/04/11 21:54:37;;;;;;;5.57;2.20;;;8.40;99.90;;;;;;20761646;28;20030;-79
2023/04/11 22:04:37;;;;;;;4.80;2.33;;;8.40;99.90;;;;;;20762690;28;20041;-79
2023/04/11 22:14:38;;;;;;;8.57;2.53;;;8.50;99.90;;;;;;20759438;28;20128;-80
2023/04/11 22:24:39;;;;;;;6.77;2.50;;;8.00;99.90;;;;;;20761979;28;20503;-80
2023/04/11 22:34:40;;;;;;;5.27;2.10;;;8.00;99.90;;;;;;20761301;28;20101;-77
2023/04/11 22:44:41;;;;;;;6.00;2.80;;;7.80;99.90;;;;;;20761347;28;20026;-79
2023/04/11 22:54:41;;;;;;;6.25;2.33;;;7.90;99.90;;;;;;20758912;28;20300;-79
2023/04/11 23:04:43;;;;;;;6.70;2.17;;;8.00;99.90;;;;;;20758484;28;20111;-80
2023/04/11 23:14:45;;;;;;;4.38;2.05;;;8.10;99.90;;;;;;20757825;28;20038;-79
2023/04/11 23:24:46;;;;;;;3.92;2.17;;;7.60;99.90;;;;;;20764537;28;20041;-79
2023/04/11 23:34:46;;;;;;;6.13;1.93;;;7.60;99.90;;;;;;20773412;28;20121;-79
2023/04/11 23:44:47;;;;;;;7.00;2.63;;;7.50;99.90;;;;;;20770201;28;20034;-79
2023/04/11 23:54:49;;;;;;;4.13;2.17;;;7.50;99.90;;;;;;20770828;28;20037;-79
